createdAt,value
2022-10-19T00:00:43.218Z,60.36
2022-10-19T00:03:31.914Z,59.31
2022-10-19T00:06:30.400Z,61.77
2022-10-19T00:09:19.064Z,63.90
2022-10-19T00:12:05.753Z,63.17
2022-10-19T00:14:51.743Z,61.78
2022-10-19T00:17:38.177Z,61.04
2022-10-19T00:20:24.838Z,60.70
2022-10-19T00:23:11.179Z,60.23
2022-10-19T00:25:58.048Z,59.25
2022-10-19T00:28:44.386Z,59.14
2022-10-19T00:31:30.581Z,62.09
2022-10-19T00:34:17.669Z,64.30
2022-10-19T00:37:03.922Z,63.50
2022-10-19T00:42:37.391Z,60.67
2022-10-19T00:45:24.034Z,59.84
2022-10-19T00:48:18.677Z,60.07
2022-10-19T00:51:04.826Z,58.87
2022-10-19T00:53:51.461Z,59.39
2022-10-19T00:56:41.046Z,63.80
2022-10-19T00:59:31.260Z,63.09
2022-10-19T01:02:17.954Z,62.01
2022-10-19T01:05:04.770Z,61.53
2022-10-19T01:07:51.756Z,60.46
2022-10-19T01:11:39.567Z,60.31
2022-10-19T01:15:04.343Z,59.43
2022-10-19T01:18:14.906Z,62.75
2022-10-19T01:21:34.986Z,63.95
2022-10-19T01:24:27.119Z,63.02
2022-10-19T01:27:30.001Z,61.23
2022-10-19T01:30:42.017Z,60.17
2022-10-19T01:33:34.223Z,59.71
2022-10-19T01:36:32.255Z,59.23
2022-10-19T01:39:53.201Z,61.28
2022-10-19T01:43:03.719Z,64.65
2022-10-19T01:45:59.911Z,64.45
2022-10-19T01:48:56.438Z,62.94
2022-10-19T01:51:51.094Z,62.41
2022-10-19T01:54:42.570Z,61.66
2022-10-19T01:57:36.712Z,62.14
2022-10-19T02:00:25.293Z,61.44
2022-10-19T02:03:13.059Z,62.43
2022-10-19T02:06:01.649Z,61.93
2022-10-19T02:08:51.457Z,61.62
2022-10-19T02:11:38.243Z,60.43
2022-10-19T02:14:37.705Z,58.98
2022-10-19T02:17:32.927Z,61.10
2022-10-19T02:20:19.923Z,64.95
2022-10-19T02:23:07.090Z,64.98
2022-10-19T02:25:55.315Z,64.27
2022-10-19T02:28:45.326Z,63.72
2022-10-19T02:31:32.107Z,61.87
2022-10-19T02:34:18.423Z,61.79
2022-10-19T02:37:05.536Z,61.22
2022-10-19T02:39:51.715Z,60.80
2022-10-19T02:43:00.133Z,61.09
2022-10-19T02:45:59.789Z,60.94
2022-10-19T02:48:49.313Z,60.85
2022-10-19T02:51:39.464Z,60.19
2022-10-19T02:54:26.696Z,58.92
2022-10-19T02:57:15.589Z,59.83
2022-10-19T03:00:03.426Z,63.88
2022-10-19T03:02:49.449Z,64.98
2022-10-19T03:05:35.669Z,63.38
2022-10-19T03:08:22.149Z,62.47
2022-10-19T03:11:08.554Z,62.12
2022-10-19T03:13:54.886Z,61.40
2022-10-19T03:16:41.264Z,61.34
2022-10-19T03:19:28.023Z,61.26
2022-10-19T03:22:14.819Z,61.85
2022-10-19T03:25:01.067Z,61.77
2022-10-19T03:27:47.938Z,61.51
2022-10-19T03:30:34.456Z,60.79
2022-10-19T03:33:21.307Z,61.30
2022-10-19T03:36:31.280Z,61.32
2022-10-19T03:39:18.074Z,60.88
2022-10-19T03:42:04.668Z,59.90
2022-10-19T03:44:51.152Z,59.09
2022-10-19T03:47:37.580Z,62.45
2022-10-19T03:50:24.190Z,64.92
2022-10-19T03:53:10.659Z,64.57
2022-10-19T03:56:08.191Z,64.43
2022-10-19T03:58:57.119Z,63.04
2022-10-19T04:01:45.717Z,63.07
2022-10-19T04:04:31.613Z,62.79
2022-10-19T04:07:17.833Z,62.58
2022-10-19T04:10:04.850Z,60.98
2022-10-19T04:12:53.787Z,61.06
2022-10-19T04:15:40.561Z,60.37
2022-10-19T04:18:27.034Z,60.50
2022-10-19T04:21:36.867Z,60.36
2022-10-19T04:24:23.223Z,60.64
2022-10-19T04:27:09.717Z,61.14
2022-10-19T04:29:56.029Z,60.80
2022-10-19T04:32:42.034Z,60.85
2022-10-19T04:35:28.262Z,61.27
2022-10-19T04:38:14.779Z,61.28
2022-10-19T04:41:10.470Z,61.35
2022-10-19T04:43:59.460Z,60.80
2022-10-19T04:46:45.918Z,60.99
2022-10-19T04:49:32.053Z,60.84
2022-10-19T04:52:26.155Z,60.73
2022-10-19T04:55:12.510Z,61.03
2022-10-19T04:57:58.780Z,60.71
2022-10-19T05:00:45.010Z,60.52
2022-10-19T05:03:31.504Z,60.26
2022-10-19T05:06:17.964Z,60.59
2022-10-19T05:09:04.510Z,60.51
2022-10-19T05:11:51.035Z,60.35
2022-10-19T05:14:39.149Z,60.29
2022-10-19T05:17:32.233Z,59.98
2022-10-19T05:20:18.737Z,59.32
2022-10-19T05:23:07.268Z,59.93
2022-10-19T05:26:04.777Z,60.87
2022-10-19T05:28:57.428Z,65.64
2022-10-19T05:31:43.734Z,67.19
2022-10-19T05:34:30.156Z,65.44
2022-10-19T05:37:16.927Z,64.60
2022-10-19T05:40:03.709Z,63.73
2022-10-19T05:42:49.905Z,62.43
2022-10-19T05:45:36.363Z,61.76
2022-10-19T05:48:23.427Z,61.04
2022-10-19T05:51:13.054Z,60.88
2022-10-19T05:53:59.409Z,60.49
2022-10-19T05:56:46.906Z,60.20
2022-10-19T05:59:33.587Z,59.69
2022-10-19T06:02:20.311Z,57.65
2022-10-19T06:05:07.267Z,57.97
2022-10-19T06:07:53.782Z,59.89
2022-10-19T06:10:40.352Z,63.92
2022-10-19T06:13:26.839Z,65.57
2022-10-19T06:16:15.568Z,63.73
2022-10-19T06:19:01.799Z,62.21
2022-10-19T06:21:48.168Z,60.14
2022-10-19T06:24:34.748Z,57.07
2022-10-19T06:27:20.966Z,58.03
2022-10-19T06:30:08.218Z,60.19
2022-10-19T06:32:54.550Z,64.54
2022-10-19T06:35:42.450Z,64.44
2022-10-19T06:38:28.695Z,62.10
2022-10-19T06:41:16.237Z,61.25
2022-10-19T06:44:02.281Z,60.17
2022-10-19T06:46:48.686Z,58.27
2022-10-19T06:49:35.398Z,57.90
2022-10-19T06:52:21.923Z,59.13
2022-10-19T06:55:09.018Z,63.76
2022-10-19T06:57:55.425Z,64.94
2022-10-19T07:00:42.042Z,63.35
2022-10-19T07:03:29.819Z,61.64
2022-10-19T07:06:16.121Z,60.56
2022-10-19T07:09:03.252Z,56.96
2022-10-19T07:11:49.644Z,57.27
2022-10-19T07:14:39.033Z,63.52
2022-10-19T07:17:25.663Z,62.75
2022-10-19T07:20:11.911Z,55.64
2022-10-19T07:22:58.327Z,50.21
2022-10-19T07:25:44.943Z,54.32
2022-10-19T07:28:32.437Z,52.10
2022-10-19T07:31:23.511Z,55.25
2022-10-19T07:34:13.050Z,60.06
2022-10-19T07:36:59.655Z,56.18
2022-10-19T07:39:45.907Z,56.94
2022-10-19T07:42:32.367Z,54.53
2022-10-19T07:45:18.835Z,51.06
2022-10-19T07:48:05.635Z,50.21
2022-10-19T07:50:51.925Z,49.03
2022-10-19T07:53:38.834Z,49.70
2022-10-19T07:56:26.962Z,53.78
2022-10-19T07:59:15.642Z,52.52
2022-10-19T08:02:04.170Z,53.04
2022-10-19T08:05:09.118Z,54.46
2022-10-19T08:07:57.411Z,56.05
2022-10-19T08:10:44.066Z,57.12
2022-10-19T08:13:30.025Z,58.80
2022-10-19T08:16:36.783Z,59.08
2022-10-19T08:19:23.766Z,61.87
2022-10-19T08:22:10.683Z,60.33
2022-10-19T08:24:56.869Z,53.77
2022-10-19T08:27:43.237Z,53.16
2022-10-19T08:30:29.837Z,51.74
2022-10-19T08:33:16.135Z,50.23
2022-10-19T08:36:08.280Z,51.27
2022-10-19T08:38:54.894Z,49.87
2022-10-19T08:42:23.515Z,47.06
2022-10-19T08:48:42.346Z,48.32
2022-10-19T08:51:38.684Z,49.28
2022-10-19T08:54:40.082Z,51.32
2022-10-19T08:58:04.983Z,52.73
2022-10-19T09:01:13.531Z,53.22
2022-10-19T09:04:14.616Z,50.67
2022-10-19T09:07:28.819Z,47.96
2022-10-19T09:10:15.268Z,45.57
2022-10-19T09:14:03.782Z,44.02
2022-10-19T09:16:48.238Z,42.12
2022-10-19T09:19:37.091Z,40.51
2022-10-19T09:22:31.832Z,40.45
2022-10-19T09:25:22.603Z,39.10
2022-10-19T09:28:39.831Z,39.83
2022-10-19T09:31:42.840Z,42.77
2022-10-19T09:34:37.750Z,43.23
2022-10-19T09:37:26.572Z,40.52
2022-10-19T09:40:27.740Z,40.75
2022-10-19T09:43:21.197Z,39.66
2022-10-19T09:46:20.548Z,40.75
2022-10-19T09:49:07.450Z,41.11
2022-10-19T09:51:54.661Z,41.54
2022-10-19T09:54:41.270Z,42.99
2022-10-19T09:57:27.939Z,44.52
2022-10-19T10:00:24.948Z,45.77
2022-10-19T10:03:42.933Z,47.29
2022-10-19T10:06:29.309Z,49.13
2022-10-19T10:09:25.771Z,48.58
2022-10-19T10:12:15.487Z,47.93
2022-10-19T10:15:05.991Z,47.70
2022-10-19T10:17:52.924Z,44.55
2022-10-19T10:23:58.826Z,38.00
2022-10-19T10:26:53.924Z,38.42
2022-10-19T10:32:49.771Z,41.25
2022-10-19T10:35:36.694Z,42.85
2022-10-19T10:38:38.683Z,43.07
2022-10-19T10:41:28.416Z,42.84
2022-10-19T10:44:29.196Z,43.47
2022-10-19T10:47:20.051Z,43.07
2022-10-19T10:50:07.304Z,39.49
2022-10-19T10:53:06.580Z,35.80
2022-10-19T10:55:56.114Z,35.31
2022-10-19T10:58:52.733Z,33.91
2022-10-19T11:02:12.340Z,32.19
2022-10-19T11:05:17.015Z,30.84
2022-10-19T11:08:18.419Z,30.68
2022-10-19T11:11:26.998Z,31.45
2022-10-19T11:14:45.744Z,33.21
2022-10-19T11:17:38.722Z,34.48
2022-10-19T11:20:30.311Z,36.15
2022-10-19T11:23:41.708Z,38.00
2022-10-19T11:26:53.114Z,38.79
2022-10-19T11:29:57.937Z,39.82
2022-10-19T11:33:13.042Z,41.15
2022-10-19T11:36:15.144Z,41.73
2022-10-19T11:39:16.398Z,42.96
2022-10-19T11:42:42.092Z,44.34
2022-10-19T11:45:49.254Z,45.72
2022-10-19T11:48:56.699Z,47.62
2022-10-19T12:09:02.692Z,48.08
2022-10-19T12:12:12.190Z,48.46
2022-10-19T12:15:10.620Z,48.56
2022-10-19T12:18:08.195Z,47.49
2022-10-19T12:21:01.772Z,45.66
2022-10-19T12:23:48.365Z,44.77
2022-10-19T12:26:36.644Z,43.49
2022-10-19T12:29:46.634Z,43.52
2022-10-19T12:32:45.613Z,43.64
2022-10-19T12:36:01.920Z,43.14
2022-10-19T12:39:12.899Z,42.28
2022-10-19T12:42:38.823Z,41.38
2022-10-19T12:45:34.388Z,42.14
2022-10-19T12:48:22.350Z,42.91
2022-10-19T12:51:15.261Z,43.86
2022-10-19T12:54:09.056Z,44.17
2022-10-19T12:56:57.665Z,44.61
2022-10-19T12:59:44.328Z,45.09
2022-10-19T13:02:36.280Z,45.14
2022-10-19T13:05:27.144Z,44.82
2022-10-19T13:08:41.612Z,45.32
2022-10-19T13:11:28.336Z,45.49
2022-10-19T13:14:14.467Z,45.73
2022-10-19T13:17:02.495Z,45.61
2022-10-19T13:19:49.113Z,45.99
2022-10-19T13:22:35.631Z,46.74
2022-10-19T13:25:40.253Z,47.73
2022-10-19T13:28:26.249Z,48.82
2022-10-19T13:31:28.998Z,49.67
2022-10-19T13:34:15.978Z,50.42
2022-10-19T13:37:04.033Z,51.13
2022-10-19T13:39:50.347Z,52.28
2022-10-19T13:42:37.368Z,53.55
2022-10-19T13:45:24.365Z,53.18
2022-10-19T13:48:25.949Z,53.27
2022-10-19T13:51:47.346Z,53.84
2022-10-19T13:55:17.420Z,54.41
2022-10-19T13:58:24.890Z,54.95
2022-10-19T14:01:31.722Z,54.64
2022-10-19T14:05:07.239Z,55.30
2022-10-19T14:08:37.105Z,55.09
2022-10-19T14:12:06.402Z,55.51
2022-10-19T14:14:55.768Z,55.99
2022-10-19T14:17:42.601Z,56.81
2022-10-19T14:20:38.455Z,56.38
2022-10-19T14:23:30.998Z,56.31
2022-10-19T14:26:22.753Z,56.57
2022-10-19T14:29:12.933Z,56.93
2022-10-19T14:31:59.822Z,56.49
2022-10-19T14:34:48.346Z,56.66
2022-10-19T14:37:36.302Z,56.59
2022-10-19T14:40:31.944Z,57.38
2022-10-19T14:43:26.675Z,56.83
2022-10-19T14:46:15.977Z,57.33
2022-10-19T14:49:10.639Z,57.32
2022-10-19T14:52:07.865Z,57.64
2022-10-19T14:55:03.628Z,58.01
2022-10-19T14:57:53.485Z,58.30
2022-10-19T15:00:50.417Z,58.45
2022-10-19T15:03:50.134Z,58.74
2022-10-19T15:06:41.923Z,58.85
2022-10-19T15:09:48.121Z,59.00
2022-10-19T15:12:41.971Z,60.04
2022-10-19T15:15:34.563Z,59.83
2022-10-19T15:18:47.840Z,59.88
2022-10-19T15:21:45.256Z,60.20
2022-10-19T15:24:32.895Z,60.50
2022-10-19T15:27:27.948Z,60.80
2022-10-19T15:30:27.152Z,64.31
2022-10-19T15:33:16.732Z,63.65
2022-10-19T15:36:19.012Z,63.71
2022-10-19T15:39:32.907Z,62.45
2022-10-19T15:42:43.540Z,56.44
2022-10-19T15:46:13.482Z,54.12
2022-10-19T15:49:40.013Z,54.47
2022-10-19T15:52:33.120Z,55.74
2022-10-19T15:55:22.015Z,57.35
2022-10-19T15:58:13.176Z,58.46
2022-10-19T16:00:59.450Z,59.78
2022-10-19T16:03:46.360Z,60.15
2022-10-19T16:06:36.062Z,60.93
2022-10-19T16:09:28.125Z,62.51
2022-10-19T16:12:14.745Z,63.62
2022-10-19T16:15:01.566Z,62.31
2022-10-19T16:17:58.889Z,56.04
2022-10-19T16:20:45.595Z,56.08
2022-10-19T16:23:40.960Z,56.83
2022-10-19T16:26:31.415Z,57.72
2022-10-19T16:29:18.020Z,59.20
2022-10-19T16:32:04.819Z,59.68
2022-10-19T16:34:51.451Z,60.84
2022-10-19T16:37:42.703Z,61.56
2022-10-19T16:40:32.111Z,63.84
2022-10-19T16:43:18.830Z,66.42
2022-10-19T16:46:06.270Z,65.86
2022-10-19T16:48:53.456Z,62.55
2022-10-19T16:51:41.903Z,58.56
2022-10-19T16:54:33.479Z,55.78
2022-10-19T16:57:20.441Z,56.72
2022-10-19T17:00:09.039Z,57.57
2022-10-19T17:02:55.674Z,58.40
2022-10-19T17:05:42.528Z,59.10
2022-10-19T17:08:36.894Z,60.41
2022-10-19T17:11:28.897Z,65.96
2022-10-19T17:14:15.885Z,68.58
2022-10-19T17:17:02.812Z,66.15
2022-10-19T17:19:51.880Z,63.52
2022-10-19T17:22:38.689Z,61.06
2022-10-19T17:25:25.577Z,56.43
2022-10-19T17:28:12.767Z,55.12
2022-10-19T17:31:07.701Z,55.81
2022-10-19T17:33:54.801Z,56.74
2022-10-19T17:36:45.291Z,58.28
2022-10-19T17:39:32.102Z,59.31
2022-10-19T17:42:18.758Z,60.51
2022-10-19T17:45:06.354Z,63.15
2022-10-19T17:47:53.013Z,65.96
2022-10-19T17:50:39.218Z,64.62
2022-10-19T17:53:26.179Z,62.64
2022-10-19T17:56:14.964Z,61.72
2022-10-19T17:59:04.293Z,57.90
2022-10-19T18:02:10.228Z,55.66
2022-10-19T18:04:57.969Z,56.38
2022-10-19T18:07:48.664Z,58.36
2022-10-19T18:10:36.373Z,60.11
2022-10-19T18:13:23.026Z,60.61
2022-10-19T18:16:27.041Z,63.10
2022-10-19T18:19:15.071Z,66.29
2022-10-19T18:22:02.166Z,65.02
2022-10-19T18:24:49.025Z,63.43
2022-10-19T18:27:35.911Z,59.17
2022-10-19T18:30:22.468Z,56.44
2022-10-19T18:33:09.204Z,57.28
2022-10-19T18:35:57.910Z,58.37
2022-10-19T18:38:44.428Z,59.23
2022-10-19T18:41:31.677Z,60.39
2022-10-19T18:44:23.465Z,63.79
2022-10-19T18:47:12.958Z,66.71
2022-10-19T18:49:59.372Z,65.28
2022-10-19T18:52:45.814Z,62.05
2022-10-19T18:55:32.908Z,60.33
2022-10-19T18:58:19.156Z,57.37
2022-10-19T19:01:12.398Z,55.44
2022-10-19T19:04:06.986Z,56.60
2022-10-19T19:06:53.379Z,58.26
2022-10-19T19:09:40.247Z,59.50
2022-10-19T19:12:26.954Z,60.38
2022-10-19T19:15:13.519Z,63.89
2022-10-19T19:17:59.844Z,66.53
2022-10-19T19:20:46.400Z,65.72
2022-10-19T19:23:33.049Z,62.06
2022-10-19T19:26:21.923Z,58.93
2022-10-19T19:29:08.639Z,56.06
2022-10-19T19:31:55.065Z,56.99
2022-10-19T19:34:45.835Z,57.74
2022-10-19T19:37:35.178Z,59.40
2022-10-19T19:40:22.630Z,60.50
2022-10-19T19:43:10.302Z,61.26
2022-10-19T19:46:04.761Z,64.86
2022-10-19T19:49:00.612Z,66.74
2022-10-19T19:51:49.121Z,62.71
2022-10-19T19:54:35.528Z,61.68
2022-10-19T19:57:22.075Z,57.65
2022-10-19T20:00:09.547Z,56.06
2022-10-19T20:02:59.655Z,57.11
2022-10-19T20:05:46.746Z,58.24
2022-10-19T20:08:35.541Z,59.81
2022-10-19T20:11:24.213Z,61.02
2022-10-19T20:14:11.777Z,65.15
2022-10-19T20:16:58.612Z,67.26
2022-10-19T20:19:45.052Z,65.03
2022-10-19T20:22:31.693Z,62.24
2022-10-19T20:25:29.610Z,59.71
2022-10-19T20:28:19.887Z,56.34
2022-10-19T20:31:08.609Z,56.00
2022-10-19T20:33:56.553Z,56.73
2022-10-19T20:36:43.053Z,59.62
2022-10-19T20:39:32.156Z,59.70
2022-10-19T20:42:18.809Z,60.87
2022-10-19T20:45:05.974Z,64.70
2022-10-19T20:47:52.396Z,68.21
2022-10-19T20:50:42.240Z,65.16
2022-10-19T20:53:28.853Z,62.70
2022-10-19T20:56:22.619Z,60.71
2022-10-19T20:59:16.601Z,56.94
2022-10-19T21:02:02.849Z,55.92
2022-10-19T21:04:51.764Z,57.05
2022-10-19T21:07:38.278Z,59.00
2022-10-19T21:10:24.857Z,60.13
2022-10-19T21:13:11.106Z,61.30
2022-10-19T21:15:57.575Z,65.32
2022-10-19T21:18:46.715Z,68.21
2022-10-19T21:21:40.136Z,65.02
2022-10-19T21:24:33.753Z,61.64
2022-10-19T21:27:20.279Z,58.52
2022-10-19T21:30:07.892Z,55.98
2022-10-19T21:32:54.018Z,56.90
2022-10-19T21:35:40.264Z,58.33
2022-10-19T21:38:26.898Z,59.35
2022-10-19T21:41:20.771Z,60.09
2022-10-19T21:44:10.201Z,63.54
2022-10-19T21:46:56.553Z,67.33
2022-10-19T21:49:42.843Z,65.20
2022-10-19T21:52:29.510Z,63.03
2022-10-19T21:55:16.157Z,61.11
2022-10-19T21:58:04.504Z,57.96
2022-10-19T22:00:51.021Z,56.05
2022-10-19T22:03:37.673Z,57.72
2022-10-19T22:06:29.505Z,57.92
2022-10-19T22:09:22.687Z,59.14
2022-10-19T22:12:08.994Z,60.42
2022-10-19T22:14:55.398Z,63.74
2022-10-19T22:17:42.291Z,66.32
2022-10-19T22:20:28.924Z,64.57
2022-10-19T22:23:14.827Z,62.54
2022-10-19T22:26:01.102Z,60.42
2022-10-19T22:28:47.991Z,56.76
2022-10-19T22:31:36.009Z,55.09
2022-10-19T22:34:22.215Z,56.22
2022-10-19T22:37:08.510Z,56.95
2022-10-19T22:39:54.863Z,59.01
2022-10-19T22:43:52.825Z,60.05
2022-10-19T22:46:58.230Z,65.19
2022-10-19T22:49:47.117Z,64.71
2022-10-19T22:52:33.790Z,62.30
2022-10-19T22:55:21.190Z,58.70
2022-10-19T22:58:08.416Z,55.08
2022-10-19T23:01:08.504Z,55.16
2022-10-19T23:03:55.291Z,56.15
2022-10-19T23:06:41.617Z,58.13
2022-10-19T23:09:27.543Z,59.13
2022-10-19T23:12:13.975Z,60.32
2022-10-19T23:15:00.257Z,63.49
2022-10-19T23:17:46.242Z,65.84
2022-10-19T23:20:32.330Z,63.96
2022-10-19T23:23:18.594Z,61.26
2022-10-19T23:26:04.698Z,57.21
2022-10-19T23:28:51.760Z,55.52
2022-10-19T23:31:37.978Z,56.09
2022-10-19T23:34:24.423Z,57.81
2022-10-19T23:37:10.587Z,58.28
2022-10-19T23:39:56.721Z,59.63
2022-10-19T23:42:43.434Z,61.71
2022-10-19T23:45:30.072Z,65.75
2022-10-19T23:48:16.549Z,64.39
2022-10-19T23:51:12.811Z,61.36
2022-10-19T23:53:59.345Z,57.15
2022-10-19T23:56:45.850Z,55.75
2022-10-19T23:59:32.230Z,57.09
